sensor_id;sensor_type;location;lat;lon;timestamp;temperature;humidity
35445;DHT22;21562;49.476;6.086;2022-07-18T00:00:42;21.30;63.30
35445;DHT22;21562;49.476;6.086;2022-07-18T00:03:07;21.20;64.00
35445;DHT22;21562;49.476;6.086;2022-07-18T00:05:33;21.10;64.00
35445;DHT22;21562;49.476;6.086;2022-07-18T00:07:59;21.00;64.20
35445;DHT22;21562;49.476;6.086;2022-07-18T00:10:24;20.80;65.00
35445;DHT22;21562;49.476;6.086;2022-07-18T00:12:50;20.80;65.00
35445;DHT22;21562;49.476;6.086;2022-07-18T00:15:16;20.80;65.30
35445;DHT22;21562;49.476;6.086;2022-07-18T00:17:41;20.50;66.00
35445;DHT22;21562;49.476;6.086;2022-07-18T00:20:09;20.30;66.50
35445;DHT22;21562;49.476;6.086;2022-07-18T00:22:35;20.30;66.60
35445;DHT22;21562;49.476;6.086;2022-07-18T00:25:01;20.30;66.70
35445;DHT22;21562;49.476;6.086;2022-07-18T00:27:27;20.30;67.10
35445;DHT22;21562;49.476;6.086;2022-07-18T00:29:52;20.40;67.10
35445;DHT22;21562;49.476;6.086;2022-07-18T00:32:18;20.30;67.20
35445;DHT22;21562;49.476;6.086;2022-07-18T00:34:44;20.10;67.70
35445;DHT22;21562;49.476;6.086;2022-07-18T00:37:09;20.10;68.10
35445;DHT22;21562;49.476;6.086;2022-07-18T00:39:35;20.20;68.00
35445;DHT22;21562;49.476;6.086;2022-07-18T00:42:01;20.20;68.00
35445;DHT22;21562;49.476;6.086;2022-07-18T00:44:28;20.20;67.80
35445;DHT22;21562;49.476;6.086;2022-07-18T00:46:58;20.30;68.80
35445;DHT22;21562;49.476;6.086;2022-07-18T00:49:24;20.30;67.90
35445;DHT22;21562;49.476;6.086;2022-07-18T00:51:51;20.10;68.60
35445;DHT22;21562;49.476;6.086;2022-07-18T00:54:18;20.10;68.50
35445;DHT22;21562;49.476;6.086;2022-07-18T00:56:44;20.10;68.50
35445;DHT22;21562;49.476;6.086;2022-07-18T00:59:12;20.10;69.10
35445;DHT22;21562;49.476;6.086;2022-07-18T01:01:38;20.10;68.60
35445;DHT22;21562;49.476;6.086;2022-07-18T01:04:21;20.10;68.80
35445;DHT22;21562;49.476;6.086;2022-07-18T01:06:48;19.80;69.50
35445;DHT22;21562;49.476;6.086;2022-07-18T01:09:15;20.00;68.90
35445;DHT22;21562;49.476;6.086;2022-07-18T01:11:43;20.00;68.80
35445;DHT22;21562;49.476;6.086;2022-07-18T01:14:10;20.10;68.70
35445;DHT22;21562;49.476;6.086;2022-07-18T01:16:35;20.00;68.80
35445;DHT22;21562;49.476;6.086;2022-07-18T01:19:02;19.80;69.30
35445;DHT22;21562;49.476;6.086;2022-07-18T01:21:28;19.40;70.50
35445;DHT22;21562;49.476;6.086;2022-07-18T01:23:54;19.40;70.70
35445;DHT22;21562;49.476;6.086;2022-07-18T01:26:20;19.30;70.60
35445;DHT22;21562;49.476;6.086;2022-07-18T01:28:46;19.10;71.20
35445;DHT22;21562;49.476;6.086;2022-07-18T01:31:12;18.80;72.00
35445;DHT22;21562;49.476;6.086;2022-07-18T01:33:38;18.70;72.40
35445;DHT22;21562;49.476;6.086;2022-07-18T01:36:05;18.90;71.90
35445;DHT22;21562;49.476;6.086;2022-07-18T01:38:32;19.10;71.50
35445;DHT22;21562;49.476;6.086;2022-07-18T01:40:58;19.50;70.80
35445;DHT22;21562;49.476;6.086;2022-07-18T01:43:25;19.60;70.40
35445;DHT22;21562;49.476;6.086;2022-07-18T01:45:51;19.60;70.10
35445;DHT22;21562;49.476;6.086;2022-07-18T01:48:17;19.60;70.70
35445;DHT22;21562;49.476;6.086;2022-07-18T01:50:45;19.70;70.60
35445;DHT22;21562;49.476;6.086;2022-07-18T01:53:11;19.80;70.10
35445;DHT22;21562;49.476;6.086;2022-07-18T01:55:37;19.90;70.00
35445;DHT22;21562;49.476;6.086;2022-07-18T01:58:03;19.60;70.20
35445;DHT22;21562;49.476;6.086;2022-07-18T02:00:29;19.30;71.10
35445;DHT22;21562;49.476;6.086;2022-07-18T02:02:54;19.30;71.50
35445;DHT22;21562;49.476;6.086;2022-07-18T02:05:20;19.20;71.90
35445;DHT22;21562;49.476;6.086;2022-07-18T02:07:46;19.20;72.60
35445;DHT22;21562;49.476;6.086;2022-07-18T02:10:17;19.30;71.80
35445;DHT22;21562;49.476;6.086;2022-07-18T02:12:43;19.40;71.20
35445;DHT22;21562;49.476;6.086;2022-07-18T02:15:11;19.50;71.40
35445;DHT22;21562;49.476;6.086;2022-07-18T02:17:37;19.00;72.20
35445;DHT22;21562;49.476;6.086;2022-07-18T02:20:07;18.90;73.10
35445;DHT22;21562;49.476;6.086;2022-07-18T02:22:34;18.60;73.70
35445;DHT22;21562;49.476;6.086;2022-07-18T02:24:59;18.70;73.80
35445;DHT22;21562;49.476;6.086;2022-07-18T02:27:25;18.90;73.30
35445;DHT22;21562;49.476;6.086;2022-07-18T02:29:51;18.70;73.30
35445;DHT22;21562;49.476;6.086;2022-07-18T02:32:17;18.50;74.10
35445;DHT22;21562;49.476;6.086;2022-07-18T02:34:43;18.50;74.10
35445;DHT22;21562;49.476;6.086;2022-07-18T02:37:09;18.60;74.20
35445;DHT22;21562;49.476;6.086;2022-07-18T02:39:36;18.70;73.90
35445;DHT22;21562;49.476;6.086;2022-07-18T02:42:04;19.00;73.30
35445;DHT22;21562;49.476;6.086;2022-07-18T02:44:30;19.20;72.20
35445;DHT22;21562;49.476;6.086;2022-07-18T02:46:55;19.10;72.50
35445;DHT22;21562;49.476;6.086;2022-07-18T02:49:21;18.60;73.90
35445;DHT22;21562;49.476;6.086;2022-07-18T02:52:04;18.60;74.20
35445;DHT22;21562;49.476;6.086;2022-07-18T02:54:33;18.80;73.70
35445;DHT22;21562;49.476;6.086;2022-07-18T02:56:59;18.90;73.60
35445;DHT22;21562;49.476;6.086;2022-07-18T02:59:26;18.80;73.70
35445;DHT22;21562;49.476;6.086;2022-07-18T03:01:52;18.60;74.20
35445;DHT22;21562;49.476;6.086;2022-07-18T03:04:19;18.30;75.40
35445;DHT22;21562;49.476;6.086;2022-07-18T03:06:46;18.30;75.60
35445;DHT22;21562;49.476;6.086;2022-07-18T03:09:13;18.70;74.80
35445;DHT22;21562;49.476;6.086;2022-07-18T03:11:38;19.00;73.80
35445;DHT22;21562;49.476;6.086;2022-07-18T03:14:04;19.10;74.10
35445;DHT22;21562;49.476;6.086;2022-07-18T03:16:30;19.10;73.50
35445;DHT22;21562;49.476;6.086;2022-07-18T03:18:56;19.20;73.40
35445;DHT22;21562;49.476;6.086;2022-07-18T03:21:21;19.00;73.40
35445;DHT22;21562;49.476;6.086;2022-07-18T03:23:47;18.90;73.90
35445;DHT22;21562;49.476;6.086;2022-07-18T03:26:13;19.10;73.70
35445;DHT22;21562;49.476;6.086;2022-07-18T03:28:38;19.20;74.20
35445;DHT22;21562;49.476;6.086;2022-07-18T03:31:04;19.20;74.20
35445;DHT22;21562;49.476;6.086;2022-07-18T03:33:30;19.10;74.00
35445;DHT22;21562;49.476;6.086;2022-07-18T03:35:56;18.90;74.30
35445;DHT22;21562;49.476;6.086;2022-07-18T03:38:22;18.30;75.70
35445;DHT22;21562;49.476;6.086;2022-07-18T03:40:48;18.50;76.00
35445;DHT22;21562;49.476;6.086;2022-07-18T03:43:13;18.60;75.80
35445;DHT22;21562;49.476;6.086;2022-07-18T03:45:39;19.00;75.10
35445;DHT22;21562;49.476;6.086;2022-07-18T03:48:05;19.10;74.70
35445;DHT22;21562;49.476;6.086;2022-07-18T03:50:31;19.00;74.60
35445;DHT22;21562;49.476;6.086;2022-07-18T03:52:56;19.00;74.80
35445;DHT22;21562;49.476;6.086;2022-07-18T03:55:23;19.10;74.70
35445;DHT22;21562;49.476;6.086;2022-07-18T03:57:48;19.20;74.70
35445;DHT22;21562;49.476;6.086;2022-07-18T04:00:14;19.10;74.00
35445;DHT22;21562;49.476;6.086;2022-07-18T04:02:45;18.80;74.70
35445;DHT22;21562;49.476;6.086;2022-07-18T04:05:11;18.70;75.10
35445;DHT22;21562;49.476;6.086;2022-07-18T04:07:37;18.50;75.90
35445;DHT22;21562;49.476;6.086;2022-07-18T04:10:05;18.40;76.40
35445;DHT22;21562;49.476;6.086;2022-07-18T04:12:31;19.20;87.10
35445;DHT22;21562;49.476;6.086;2022-07-18T04:14:57;20.40;86.00
35445;DHT22;21562;49.476;6.086;2022-07-18T04:17:23;21.20;83.20
35445;DHT22;21562;49.476;6.086;2022-07-18T04:19:48;21.70;81.50
35445;DHT22;21562;49.476;6.086;2022-07-18T04:22:14;22.10;77.00
35445;DHT22;21562;49.476;6.086;2022-07-18T04:24:40;22.50;76.10
35445;DHT22;21562;49.476;6.086;2022-07-18T04:27:05;22.80;74.50
35445;DHT22;21562;49.476;6.086;2022-07-18T04:29:31;23.10;74.30
35445;DHT22;21562;49.476;6.086;2022-07-18T04:31:59;23.30;73.30
35445;DHT22;21562;49.476;6.086;2022-07-18T04:34:25;23.40;73.40
35445;DHT22;21562;49.476;6.086;2022-07-18T04:36:50;23.40;72.90
35445;DHT22;21562;49.476;6.086;2022-07-18T04:39:16;23.30;70.80
35445;DHT22;21562;49.476;6.086;2022-07-18T04:41:43;23.10;71.10
35445;DHT22;21562;49.476;6.086;2022-07-18T04:44:09;23.30;73.10
35445;DHT22;21562;49.476;6.086;2022-07-18T04:46:35;23.40;72.30
35445;DHT22;21562;49.476;6.086;2022-07-18T04:49:01;23.30;72.10
35445;DHT22;21562;49.476;6.086;2022-07-18T04:51:26;23.40;71.20
35445;DHT22;21562;49.476;6.086;2022-07-18T04:53:52;23.30;73.50
35445;DHT22;21562;49.476;6.086;2022-07-18T04:56:22;23.40;72.20
35445;DHT22;21562;49.476;6.086;2022-07-18T04:58:48;23.50;70.30
35445;DHT22;21562;49.476;6.086;2022-07-18T05:01:14;23.50;71.20
35445;DHT22;21562;49.476;6.086;2022-07-18T05:03:40;23.60;71.30
35445;DHT22;21562;49.476;6.086;2022-07-18T05:06:06;23.80;70.80
35445;DHT22;21562;49.476;6.086;2022-07-18T05:08:32;24.00;70.00
35445;DHT22;21562;49.476;6.086;2022-07-18T05:10:58;24.30;69.50
35445;DHT22;21562;49.476;6.086;2022-07-18T05:13:24;24.40;69.10
35445;DHT22;21562;49.476;6.086;2022-07-18T05:15:50;24.40;68.10
35445;DHT22;21562;49.476;6.086;2022-07-18T05:18:16;24.40;67.60
35445;DHT22;21562;49.476;6.086;2022-07-18T05:20:42;23.70;66.50
35445;DHT22;21562;49.476;6.086;2022-07-18T05:23:07;23.20;70.40
35445;DHT22;21562;49.476;6.086;2022-07-18T05:25:34;23.60;70.50
35445;DHT22;21562;49.476;6.086;2022-07-18T05:27:59;23.80;70.10
35445;DHT22;21562;49.476;6.086;2022-07-18T05:30:25;24.10;69.50
35445;DHT22;21562;49.476;6.086;2022-07-18T05:32:51;24.30;69.50
35445;DHT22;21562;49.476;6.086;2022-07-18T05:35:17;24.50;67.80
35445;DHT22;21562;49.476;6.086;2022-07-18T05:37:43;24.70;68.50
35445;DHT22;21562;49.476;6.086;2022-07-18T05:40:11;24.90;67.00
35445;DHT22;21562;49.476;6.086;2022-07-18T05:42:37;25.00;66.60
35445;DHT22;21562;49.476;6.086;2022-07-18T05:45:04;24.70;65.40
35445;DHT22;21562;49.476;6.086;2022-07-18T05:47:30;24.70;66.90
35445;DHT22;21562;49.476;6.086;2022-07-18T05:49:56;24.60;65.50
35445;DHT22;21562;49.476;6.086;2022-07-18T05:52:22;24.40;67.90
35445;DHT22;21562;49.476;6.086;2022-07-18T05:54:48;24.50;67.10
35445;DHT22;21562;49.476;6.086;2022-07-18T05:57:13;24.70;67.90
35445;DHT22;21562;49.476;6.086;2022-07-18T05:59:39;24.90;67.40
35445;DHT22;21562;49.476;6.086;2022-07-18T06:02:05;25.00;67.10
35445;DHT22;21562;49.476;6.086;2022-07-18T06:04:30;25.10;67.10
35445;DHT22;21562;49.476;6.086;2022-07-18T06:06:56;25.20;66.60
35445;DHT22;21562;49.476;6.086;2022-07-18T06:09:22;25.30;66.20
35445;DHT22;21562;49.476;6.086;2022-07-18T06:11:48;25.50;66.50
35445;DHT22;21562;49.476;6.086;2022-07-18T06:14:14;25.70;65.60
35445;DHT22;21562;49.476;6.086;2022-07-18T06:16:39;25.80;65.70
35445;DHT22;21562;49.476;6.086;2022-07-18T06:19:05;25.60;61.10
35445;DHT22;21562;49.476;6.086;2022-07-18T06:21:31;25.30;60.00
35445;DHT22;21562;49.476;6.086;2022-07-18T06:23:56;25.10;60.30
35445;DHT22;21562;49.476;6.086;2022-07-18T06:26:22;25.10;65.20
35445;DHT22;21562;49.476;6.086;2022-07-18T06:28:48;25.30;66.00
35445;DHT22;21562;49.476;6.086;2022-07-18T06:31:14;25.50;65.50
35445;DHT22;21562;49.476;6.086;2022-07-18T06:33:43;25.70;60.80
35445;DHT22;21562;49.476;6.086;2022-07-18T06:36:08;25.80;63.40
35445;DHT22;21562;49.476;6.086;2022-07-18T06:38:37;25.90;63.40
35445;DHT22;21562;49.476;6.086;2022-07-18T06:41:03;26.10;63.40
35445;DHT22;21562;49.476;6.086;2022-07-18T06:43:29;26.10;62.50
35445;DHT22;21562;49.476;6.086;2022-07-18T06:45:55;26.20;62.70
35445;DHT22;21562;49.476;6.086;2022-07-18T06:48:23;26.00;59.30
35445;DHT22;21562;49.476;6.086;2022-07-18T06:50:49;25.90;60.10
35445;DHT22;21562;49.476;6.086;2022-07-18T06:53:14;25.60;60.60
35445;DHT22;21562;49.476;6.086;2022-07-18T06:55:40;25.40;62.50
35445;DHT22;21562;49.476;6.086;2022-07-18T06:58:06;25.60;61.20
35445;DHT22;21562;49.476;6.086;2022-07-18T07:00:31;25.70;63.80
35445;DHT22;21562;49.476;6.086;2022-07-18T07:02:57;25.80;61.60
35445;DHT22;21562;49.476;6.086;2022-07-18T07:05:23;25.90;63.20
35445;DHT22;21562;49.476;6.086;2022-07-18T07:07:49;26.10;61.90
35445;DHT22;21562;49.476;6.086;2022-07-18T07:10:18;26.20;62.20
35445;DHT22;21562;49.476;6.086;2022-07-18T07:12:47;26.10;59.40
35445;DHT22;21562;49.476;6.086;2022-07-18T07:15:14;25.50;59.60
35445;DHT22;21562;49.476;6.086;2022-07-18T07:17:40;25.30;60.60
35445;DHT22;21562;49.476;6.086;2022-07-18T07:20:07;25.50;60.90
35445;DHT22;21562;49.476;6.086;2022-07-18T07:22:48;25.70;60.10
35445;DHT22;21562;49.476;6.086;2022-07-18T07:25:16;25.90;60.50
35445;DHT22;21562;49.476;6.086;2022-07-18T07:27:42;26.10;58.30
35445;DHT22;21562;49.476;6.086;2022-07-18T07:30:09;26.30;59.10
35445;DHT22;21562;49.476;6.086;2022-07-18T07:32:39;26.40;56.10
35445;DHT22;21562;49.476;6.086;2022-07-18T07:35:08;26.20;54.00
35445;DHT22;21562;49.476;6.086;2022-07-18T07:37:37;26.20;55.90
35445;DHT22;21562;49.476;6.086;2022-07-18T07:40:03;26.30;54.90
35445;DHT22;21562;49.476;6.086;2022-07-18T07:42:29;26.40;55.00
35445;DHT22;21562;49.476;6.086;2022-07-18T07:44:55;26.50;57.70
35445;DHT22;21562;49.476;6.086;2022-07-18T07:47:21;26.70;55.00
35445;DHT22;21562;49.476;6.086;2022-07-18T07:49:46;26.50;55.10
35445;DHT22;21562;49.476;6.086;2022-07-18T07:52:12;26.60;54.70
35445;DHT22;21562;49.476;6.086;2022-07-18T07:54:39;26.60;55.40
35445;DHT22;21562;49.476;6.086;2022-07-18T07:57:05;26.60;53.90
35445;DHT22;21562;49.476;6.086;2022-07-18T07:59:32;26.70;54.90
35445;DHT22;21562;49.476;6.086;2022-07-18T08:01:58;26.60;54.40
35445;DHT22;21562;49.476;6.086;2022-07-18T08:04:24;26.60;54.70
35445;DHT22;21562;49.476;6.086;2022-07-18T08:06:50;26.60;54.80
35445;DHT22;21562;49.476;6.086;2022-07-18T08:09:16;26.70;54.70
35445;DHT22;21562;49.476;6.086;2022-07-18T08:11:42;26.80;54.70
35445;DHT22;21562;49.476;6.086;2022-07-18T08:14:07;27.00;55.00
35445;DHT22;21562;49.476;6.086;2022-07-18T08:16:33;27.00;54.90
35445;DHT22;21562;49.476;6.086;2022-07-18T08:18:59;27.10;54.90
35445;DHT22;21562;49.476;6.086;2022-07-18T08:21:24;27.20;54.90
35445;DHT22;21562;49.476;6.086;2022-07-18T08:23:50;27.30;55.00
35445;DHT22;21562;49.476;6.086;2022-07-18T08:26:16;27.30;54.70
35445;DHT22;21562;49.476;6.086;2022-07-18T08:28:41;27.50;55.10
35445;DHT22;21562;49.476;6.086;2022-07-18T08:31:07;27.80;54.60
35445;DHT22;21562;49.476;6.086;2022-07-18T08:33:33;27.80;54.70
35445;DHT22;21562;49.476;6.086;2022-07-18T08:35:58;27.90;55.00
35445;DHT22;21562;49.476;6.086;2022-07-18T08:38:24;28.10;54.60
35445;DHT22;21562;49.476;6.086;2022-07-18T08:40:52;28.10;54.00
35445;DHT22;21562;49.476;6.086;2022-07-18T08:43:19;28.10;54.00
35445;DHT22;21562;49.476;6.086;2022-07-18T08:45:45;28.20;53.80
35445;DHT22;21562;49.476;6.086;2022-07-18T08:48:15;28.20;53.20
35445;DHT22;21562;49.476;6.086;2022-07-18T08:50:44;28.40;53.50
35445;DHT22;21562;49.476;6.086;2022-07-18T08:53:11;28.50;53.60
35445;DHT22;21562;49.476;6.086;2022-07-18T08:55:37;28.50;53.20
35445;DHT22;21562;49.476;6.086;2022-07-18T08:58:03;28.60;53.20
35445;DHT22;21562;49.476;6.086;2022-07-18T09:00:29;28.70;52.70
35445;DHT22;21562;49.476;6.086;2022-07-18T09:03:03;28.80;52.40
35445;DHT22;21562;49.476;6.086;2022-07-18T09:05:29;28.90;52.20
35445;DHT22;21562;49.476;6.086;2022-07-18T09:08:15;28.80;51.30
35445;DHT22;21562;49.476;6.086;2022-07-18T09:13:14;29.20;51.90
35445;DHT22;21562;49.476;6.086;2022-07-18T09:16:03;29.40;51.80
35445;DHT22;21562;49.476;6.086;2022-07-18T09:18:43;29.30;51.40
35445;DHT22;21562;49.476;6.086;2022-07-18T09:23:45;29.60;51.60
35445;DHT22;21562;49.476;6.086;2022-07-18T09:29:01;30.00;51.00
35445;DHT22;21562;49.476;6.086;2022-07-18T09:31:27;30.10;51.40
35445;DHT22;21562;49.476;6.086;2022-07-18T09:34:00;30.20;50.60
35445;DHT22;21562;49.476;6.086;2022-07-18T09:36:27;30.20;50.90
35445;DHT22;21562;49.476;6.086;2022-07-18T09:38:53;30.30;51.20
35445;DHT22;21562;49.476;6.086;2022-07-18T09:41:27;30.40;49.90
35445;DHT22;21562;49.476;6.086;2022-07-18T09:43:52;30.60;50.10
35445;DHT22;21562;49.476;6.086;2022-07-18T09:46:18;30.70;49.90
35445;DHT22;21562;49.476;6.086;2022-07-18T09:48:44;30.90;50.50
35445;DHT22;21562;49.476;6.086;2022-07-18T09:51:10;31.00;50.00
35445;DHT22;21562;49.476;6.086;2022-07-18T09:53:41;31.20;49.40
35445;DHT22;21562;49.476;6.086;2022-07-18T09:56:09;31.20;49.50
35445;DHT22;21562;49.476;6.086;2022-07-18T09:58:56;31.40;49.80
35445;DHT22;21562;49.476;6.086;2022-07-18T10:01:22;31.50;50.00
35445;DHT22;21562;49.476;6.086;2022-07-18T10:03:49;31.70;49.60
35445;DHT22;21562;49.476;6.086;2022-07-18T10:06:16;31.70;50.00
35445;DHT22;21562;49.476;6.086;2022-07-18T10:08:42;31.70;49.40
35445;DHT22;21562;49.476;6.086;2022-07-18T10:11:08;31.70;50.00
35445;DHT22;21562;49.476;6.086;2022-07-18T10:13:36;31.90;48.80
35445;DHT22;21562;49.476;6.086;2022-07-18T10:16:03;31.70;49.00
35445;DHT22;21562;49.476;6.086;2022-07-18T10:18:31;31.70;48.20
35445;DHT22;21562;49.476;6.086;2022-07-18T10:21:09;31.40;47.70
35445;DHT22;21562;49.476;6.086;2022-07-18T10:33:52;32.50;49.30
35445;DHT22;21562;49.476;6.086;2022-07-18T10:36:21;32.80;48.00
35445;DHT22;21562;49.476;6.086;2022-07-18T10:41:32;33.00;48.40
35445;DHT22;21562;49.476;6.086;2022-07-18T10:43:58;33.20;48.70
35445;DHT22;21562;49.476;6.086;2022-07-18T10:46:24;33.50;49.20
35445;DHT22;21562;49.476;6.086;2022-07-18T10:48:51;33.60;47.80
35445;DHT22;21562;49.476;6.086;2022-07-18T10:51:18;33.50;48.00
35445;DHT22;21562;49.476;6.086;2022-07-18T10:58:59;33.50;47.70
35445;DHT22;21562;49.476;6.086;2022-07-18T11:01:26;32.80;47.70
35445;DHT22;21562;49.476;6.086;2022-07-18T11:04:24;33.00;47.40
35445;DHT22;21562;49.476;6.086;2022-07-18T11:06:56;33.40;48.10
35445;DHT22;21562;49.476;6.086;2022-07-18T11:09:40;33.50;47.60
35445;DHT22;21562;49.476;6.086;2022-07-18T11:12:30;33.80;46.90
35445;DHT22;21562;49.476;6.086;2022-07-18T11:15:11;33.60;47.50
35445;DHT22;21562;49.476;6.086;2022-07-18T11:17:57;33.80;47.40
35445;DHT22;21562;49.476;6.086;2022-07-18T11:20:39;34.00;47.30
35445;DHT22;21562;49.476;6.086;2022-07-18T11:23:23;34.50;47.80
35445;DHT22;21562;49.476;6.086;2022-07-18T11:25:50;34.70;47.10
35445;DHT22;21562;49.476;6.086;2022-07-18T11:28:16;34.70;47.00
35445;DHT22;21562;49.476;6.086;2022-07-18T11:30:43;34.90;48.20
35445;DHT22;21562;49.476;6.086;2022-07-18T11:33:24;34.40;46.60
35445;DHT22;21562;49.476;6.086;2022-07-18T11:35:50;34.00;47.20
35445;DHT22;21562;49.476;6.086;2022-07-18T11:38:16;34.00;46.90
35445;DHT22;21562;49.476;6.086;2022-07-18T11:40:51;34.20;47.10
35445;DHT22;21562;49.476;6.086;2022-07-18T11:43:24;33.70;46.60
35445;DHT22;21562;49.476;6.086;2022-07-18T11:48:28;34.10;47.40
35445;DHT22;21562;49.476;6.086;2022-07-18T11:50:54;34.40;46.70
35445;DHT22;21562;49.476;6.086;2022-07-18T11:53:20;34.80;47.10
35445;DHT22;21562;49.476;6.086;2022-07-18T11:55:46;34.60;46.30
35445;DHT22;21562;49.476;6.086;2022-07-18T11:58:15;33.70;46.40
35445;DHT22;21562;49.476;6.086;2022-07-18T12:00:43;33.80;47.30
35445;DHT22;21562;49.476;6.086;2022-07-18T12:03:14;33.80;46.90
35445;DHT22;21562;49.476;6.086;2022-07-18T12:05:42;33.60;46.90
35445;DHT22;21562;49.476;6.086;2022-07-18T12:11:06;34.00;46.30
35445;DHT22;21562;49.476;6.086;2022-07-18T12:13:45;33.60;46.60
35445;DHT22;21562;49.476;6.086;2022-07-18T12:19:18;34.60;46.40
35445;DHT22;21562;49.476;6.086;2022-07-18T12:21:53;34.50;45.90
35445;DHT22;21562;49.476;6.086;2022-07-18T12:32:22;35.30;46.40
35445;DHT22;21562;49.476;6.086;2022-07-18T12:35:00;35.70;46.30
35445;DHT22;21562;49.476;6.086;2022-07-18T12:37:28;35.90;45.40
35445;DHT22;21562;49.476;6.086;2022-07-18T12:40:04;36.10;45.80
35445;DHT22;21562;49.476;6.086;2022-07-18T12:42:32;36.30;45.30
35445;DHT22;21562;49.476;6.086;2022-07-18T12:44:58;36.50;45.60
35445;DHT22;21562;49.476;6.086;2022-07-18T12:47:24;36.50;45.90
35445;DHT22;21562;49.476;6.086;2022-07-18T12:49:50;35.40;45.10
35445;DHT22;21562;49.476;6.086;2022-07-18T12:52:17;35.60;46.10
35445;DHT22;21562;49.476;6.086;2022-07-18T12:54:44;35.80;45.70
35445;DHT22;21562;49.476;6.086;2022-07-18T12:57:09;35.70;45.60
35445;DHT22;21562;49.476;6.086;2022-07-18T12:59:35;36.10;45.80
35445;DHT22;21562;49.476;6.086;2022-07-18T13:02:01;36.60;46.20
35445;DHT22;21562;49.476;6.086;2022-07-18T13:04:27;36.60;45.50
35445;DHT22;21562;49.476;6.086;2022-07-18T13:06:53;36.60;45.00
35445;DHT22;21562;49.476;6.086;2022-07-18T13:09:18;36.70;45.30
35445;DHT22;21562;49.476;6.086;2022-07-18T13:11:44;36.90;44.50
35445;DHT22;21562;49.476;6.086;2022-07-18T13:14:15;37.00;44.40
35445;DHT22;21562;49.476;6.086;2022-07-18T13:16:45;36.20;44.20
35445;DHT22;21562;49.476;6.086;2022-07-18T13:19:13;35.50;45.00
35445;DHT22;21562;49.476;6.086;2022-07-18T13:21:39;36.00;45.30
35445;DHT22;21562;49.476;6.086;2022-07-18T13:24:05;36.40;45.20
35445;DHT22;21562;49.476;6.086;2022-07-18T13:26:31;37.00;45.60
35445;DHT22;21562;49.476;6.086;2022-07-18T13:28:56;37.30;44.60
35445;DHT22;21562;49.476;6.086;2022-07-18T13:31:22;37.20;45.00
35445;DHT22;21562;49.476;6.086;2022-07-18T13:33:48;37.30;45.10
35445;DHT22;21562;49.476;6.086;2022-07-18T13:36:16;37.30;44.80
35445;DHT22;21562;49.476;6.086;2022-07-18T13:38:42;37.30;44.40
35445;DHT22;21562;49.476;6.086;2022-07-18T13:41:08;37.40;44.40
35445;DHT22;21562;49.476;6.086;2022-07-18T13:43:35;37.40;44.10
35445;DHT22;21562;49.476;6.086;2022-07-18T13:46:05;37.30;44.10
35445;DHT22;21562;49.476;6.086;2022-07-18T13:48:31;36.20;44.20
35445;DHT22;21562;49.476;6.086;2022-07-18T13:50:56;35.80;44.40
35445;DHT22;21562;49.476;6.086;2022-07-18T13:53:22;35.40;44.40
35445;DHT22;21562;49.476;6.086;2022-07-18T13:55:48;35.40;44.80
35445;DHT22;21562;49.476;6.086;2022-07-18T13:58:13;36.10;45.20
35445;DHT22;21562;49.476;6.086;2022-07-18T14:00:39;36.70;44.30
35445;DHT22;21562;49.476;6.086;2022-07-18T14:03:05;37.20;44.10
35445;DHT22;21562;49.476;6.086;2022-07-18T14:05:31;37.00;43.50
35445;DHT22;21562;49.476;6.086;2022-07-18T14:07:57;36.10;43.80
35445;DHT22;21562;49.476;6.086;2022-07-18T14:10:23;35.80;43.90
35445;DHT22;21562;49.476;6.086;2022-07-18T14:12:49;36.20;44.80
35445;DHT22;21562;49.476;6.086;2022-07-18T14:15:14;36.70;44.50
35445;DHT22;21562;49.476;6.086;2022-07-18T14:17:41;37.30;44.30
35445;DHT22;21562;49.476;6.086;2022-07-18T14:20:07;37.70;43.60
35445;DHT22;21562;49.476;6.086;2022-07-18T14:22:35;37.80;43.70
35445;DHT22;21562;49.476;6.086;2022-07-18T14:25:01;38.10;43.70
35445;DHT22;21562;49.476;6.086;2022-07-18T14:27:26;38.30;43.20
35445;DHT22;21562;49.476;6.086;2022-07-18T14:29:52;38.40;42.90
35445;DHT22;21562;49.476;6.086;2022-07-18T14:32:18;37.70;42.40
35445;DHT22;21562;49.476;6.086;2022-07-18T14:34:44;37.70;43.50
35445;DHT22;21562;49.476;6.086;2022-07-18T14:37:09;37.30;42.90
35445;DHT22;21562;49.476;6.086;2022-07-18T14:39:35;37.50;43.70
35445;DHT22;21562;49.476;6.086;2022-07-18T14:42:01;36.80;42.90
35445;DHT22;21562;49.476;6.086;2022-07-18T14:44:26;36.30;43.20
35445;DHT22;21562;49.476;6.086;2022-07-18T14:46:52;36.20;44.70
35445;DHT22;21562;49.476;6.086;2022-07-18T14:49:18;36.90;43.70
35445;DHT22;21562;49.476;6.086;2022-07-18T14:51:44;37.50;43.80
35445;DHT22;21562;49.476;6.086;2022-07-18T14:54:09;37.90;44.20
35445;DHT22;21562;49.476;6.086;2022-07-18T14:56:37;38.30;43.80
35445;DHT22;21562;49.476;6.086;2022-07-18T14:59:03;38.60;43.90
35445;DHT22;21562;49.476;6.086;2022-07-18T15:01:29;38.60;43.70
35445;DHT22;21562;49.476;6.086;2022-07-18T15:03:57;38.80;44.10
35445;DHT22;21562;49.476;6.086;2022-07-18T15:06:23;38.70;42.80
35445;DHT22;21562;49.476;6.086;2022-07-18T15:08:49;38.80;42.80
35445;DHT22;21562;49.476;6.086;2022-07-18T15:11:14;39.20;42.50
35445;DHT22;21562;49.476;6.086;2022-07-18T15:13:44;39.10;42.20
35445;DHT22;21562;49.476;6.086;2022-07-18T15:16:10;38.60;42.50
35445;DHT22;21562;49.476;6.086;2022-07-18T15:18:36;38.40;42.30
35445;DHT22;21562;49.476;6.086;2022-07-18T15:21:02;38.00;42.20
35445;DHT22;21562;49.476;6.086;2022-07-18T15:23:28;38.20;42.60
35445;DHT22;21562;49.476;6.086;2022-07-18T15:25:54;37.80;42.60
35445;DHT22;21562;49.476;6.086;2022-07-18T15:28:20;38.00;42.40
35445;DHT22;21562;49.476;6.086;2022-07-18T15:30:52;38.20;42.60
35445;DHT22;21562;49.476;6.086;2022-07-18T15:33:17;38.50;42.20
35445;DHT22;21562;49.476;6.086;2022-07-18T15:35:43;38.80;42.30
35445;DHT22;21562;49.476;6.086;2022-07-18T15:38:09;39.00;42.00
35445;DHT22;21562;49.476;6.086;2022-07-18T15:40:35;39.10;41.90
35445;DHT22;21562;49.476;6.086;2022-07-18T15:43:01;39.20;42.20
35445;DHT22;21562;49.476;6.086;2022-07-18T15:45:27;39.10;41.30
35445;DHT22;21562;49.476;6.086;2022-07-18T15:47:52;39.10;41.70
35445;DHT22;21562;49.476;6.086;2022-07-18T15:50:19;39.10;41.60
35445;DHT22;21562;49.476;6.086;2022-07-18T15:52:45;39.30;41.30
35445;DHT22;21562;49.476;6.086;2022-07-18T15:55:11;39.10;40.80
35445;DHT22;21562;49.476;6.086;2022-07-18T15:57:36;38.70;41.10
35445;DHT22;21562;49.476;6.086;2022-07-18T16:00:04;38.70;41.40
35445;DHT22;21562;49.476;6.086;2022-07-18T16:02:30;38.70;40.70
35445;DHT22;21562;49.476;6.086;2022-07-18T16:04:55;38.70;40.70
35445;DHT22;21562;49.476;6.086;2022-07-18T16:07:21;38.90;41.00
35445;DHT22;21562;49.476;6.086;2022-07-18T16:09:47;38.90;40.80
35445;DHT22;21562;49.476;6.086;2022-07-18T16:12:14;38.90;41.10